»·PEaware :: N805RJ KSBP-F70

N805RJ :: KSBP-F70

FLIGHT INFORMATION

Flight Status: Arrived
Operator: Privately registered:
United States
More flights under this callsign
Pilot: Rickie J. (22768)
Aircraft: CESSNA 177 CARDINAL
(C177)
More flights by this aircraft type
Origin: KSBP San Luis Co Regl
United States
Destination: F70 French Valley
United States
More flights between these airports :: More routes between these airports
Route: AVILA V27 HENER V186 NIKKL
File this flight plan on PilotEdge
Remarks:
Altitude:
(Current/Filed)
5,500ft
Speed:
(Current/Filed)
135kts
Departed: 10-Jan-21 09:33 AM
Arrived: 10-Jan-21 11:15 AM
Distance/Time
Traveled:
200nm/1:42
Distance/Time
To Go:
Arrived

Flight Plot

Page will automatically refresh every two minutes.

Flight plan parsing failed; only flown route is shown


Map Options




Map Legend


Flown Route
Filed Route
Departure Airport
Arrival Airport
Navaid (VOR, NDB)
Fix

Horizontal Profiles

Position Reports

Time Latitude Longitude Heading Altitude Ground
Speed
10-Jan-21 08:26 35.238888 -120.638822 93 215ft 0kts
10-Jan-21 08:27 35.238888 -120.638822 93 215ft 0kts
10-Jan-21 08:28 35.238888 -120.638822 93 215ft 0kts
10-Jan-21 08:29 35.238888 -120.638822 93 215ft 0kts
10-Jan-21 08:30 35.238888 -120.638822 93 215ft 0kts
10-Jan-21 08:31 35.238888 -120.638822 93 215ft 0kts
10-Jan-21 08:32 35.238888 -120.638822 93 215ft 0kts
10-Jan-21 08:33 35.238888 -120.638822 93 215ft 0kts
10-Jan-21 08:34 35.238888 -120.638822 93 215ft 0kts
10-Jan-21 08:35 35.238888 -120.638822 93 215ft 0kts
10-Jan-21 08:36 35.238888 -120.638822 93 215ft 0kts
10-Jan-21 08:37 35.238888 -120.638822 93 215ft 0kts
10-Jan-21 08:38 35.238888 -120.638822 93 215ft 0kts
10-Jan-21 08:39 35.238888 -120.638822 93 215ft 0kts
10-Jan-21 08:40 35.238888 -120.638822 93 215ft 0kts
10-Jan-21 08:41 35.238888 -120.638822 93 215ft 0kts
10-Jan-21 08:42 35.238888 -120.638822 93 215ft 0kts
10-Jan-21 08:43 35.238888 -120.638822 93 215ft 0kts
10-Jan-21 08:44 35.238888 -120.638822 93 215ft 0kts
10-Jan-21 08:45 35.238888 -120.638822 93 215ft 0kts
10-Jan-21 08:46 35.238888 -120.638822 93 215ft 0kts
10-Jan-21 08:47 35.238888 -120.638822 93 215ft 0kts
10-Jan-21 08:48 35.238888 -120.638822 93 215ft 0kts
10-Jan-21 08:49 35.238888 -120.638822 93 215ft 0kts
10-Jan-21 08:50 35.238888 -120.638822 93 215ft 0kts
10-Jan-21 08:51 35.238888 -120.638822 93 215ft 0kts
10-Jan-21 08:52 35.238888 -120.638822 93 215ft 0kts
10-Jan-21 08:53 35.238888 -120.638822 93 215ft 0kts
10-Jan-21 08:54 35.238888 -120.638822 93 215ft 0kts
10-Jan-21 08:55 35.238888 -120.638822 93 215ft 0kts
10-Jan-21 08:56 35.238888 -120.638822 93 215ft 0kts
10-Jan-21 08:57 35.238888 -120.638822 93 215ft 0kts
10-Jan-21 08:58 35.238888 -120.638822 93 215ft 0kts
10-Jan-21 08:59 35.238888 -120.638822 93 215ft 0kts
10-Jan-21 09:00 35.238888 -120.638822 93 215ft 0kts
10-Jan-21 09:01 35.238888 -120.638822 93 215ft 0kts
10-Jan-21 09:02 35.238888 -120.638822 93 215ft 0kts
10-Jan-21 09:04 35.238888 -120.638822 93 215ft 0kts
10-Jan-21 09:05 35.238888 -120.638822 93 215ft 0kts
10-Jan-21 09:06 35.238888 -120.638822 93 215ft 0kts
10-Jan-21 09:07 35.238888 -120.638822 93 215ft 0kts
10-Jan-21 09:08 35.238888 -120.638822 93 215ft 0kts
10-Jan-21 09:09 35.238888 -120.638822 93 215ft 0kts
10-Jan-21 09:10 35.238888 -120.638822 93 215ft 0kts
10-Jan-21 09:11 35.238888 -120.638822 93 215ft 0kts
10-Jan-21 09:12 35.238888 -120.638822 93 215ft 0kts
10-Jan-21 09:13 35.238888 -120.638822 93 215ft 0kts
10-Jan-21 09:14 35.238888 -120.638822 93 215ft 0kts
10-Jan-21 09:15 35.238888 -120.638822 93 215ft 0kts
10-Jan-21 09:16 35.238888 -120.638822 93 215ft 0kts
10-Jan-21 09:17 35.238888 -120.638822 93 215ft 0kts
10-Jan-21 09:18 35.238888 -120.638822 93 215ft 0kts
10-Jan-21 09:18 35.238888 -120.638822 93 215ft 0kts
10-Jan-21 09:20 35.238888 -120.638822 93 215ft 0kts
10-Jan-21 09:21 35.238888 -120.638822 93 215ft 0kts
10-Jan-21 09:21 35.238888 -120.638822 93 215ft 0kts
10-Jan-21 09:22 35.238888 -120.638822 93 215ft 0kts
10-Jan-21 09:24 35.238883 -120.638810 121 215ft 0kts
10-Jan-21 09:24 35.237717 -120.638803 182 215ft 8kts
10-Jan-21 09:25 35.236158 -120.637036 125 215ft 10kts
10-Jan-21 09:26 35.234191 -120.633591 123 215ft 12kts
10-Jan-21 09:27 35.233116 -120.631945 208 215ft 0kts
10-Jan-21 09:28 35.233117 -120.631945 208 215ft 0kts
10-Jan-21 09:29 35.233117 -120.631945 208 215ft 0kts
10-Jan-21 09:30 35.233111 -120.631952 227 215ft 0kts
10-Jan-21 09:31 35.232870 -120.633128 293 215ft 9kts
10-Jan-21 09:32 35.243817 -120.652650 304 475ft 99kts
10-Jan-21 09:33 35.260256 -120.681894 304 1501ft 103kts
10-Jan-21 09:34 35.278202 -120.708465 348 2501ft 100kts
10-Jan-21 09:35 35.284289 -120.685978 141 3481ft 98kts
10-Jan-21 09:36 35.257057 -120.677754 165 4510ft 96kts
10-Jan-21 09:37 35.231115 -120.670030 165 5487ft 92kts
10-Jan-21 09:38 35.200151 -120.656676 164 5501ft 124kts
10-Jan-21 09:39 35.165231 -120.656858 188 5501ft 123kts
10-Jan-21 09:40 35.132010 -120.646028 148 5503ft 128kts
10-Jan-21 09:41 35.102598 -120.619327 146 5500ft 128kts
10-Jan-21 09:42 35.073421 -120.592144 146 5501ft 128kts
10-Jan-21 09:43 35.044118 -120.564890 146 5502ft 128kts
10-Jan-21 09:44 35.014972 -120.537753 146 5500ft 129kts
10-Jan-21 09:45 34.985447 -120.510271 145 5501ft 133kts
10-Jan-21 09:46 34.954014 -120.481015 145 5503ft 140kts
10-Jan-21 09:47 34.921967 -120.451301 145 5503ft 141kts
10-Jan-21 09:48 34.890002 -120.421614 145 5502ft 141kts
10-Jan-21 09:49 34.857762 -120.391738 145 5503ft 141kts
10-Jan-21 09:50 34.825859 -120.362221 145 5506ft 141kts
10-Jan-21 09:51 34.794135 -120.332811 144 5498ft 141kts
10-Jan-21 09:52 34.762377 -120.303478 139 5501ft 141kts
10-Jan-21 09:53 34.730225 -120.273664 139 5501ft 141kts
10-Jan-21 09:54 34.698067 -120.243986 139 5502ft 141kts
10-Jan-21 09:55 34.666035 -120.214487 139 5500ft 141kts
10-Jan-21 09:56 34.633744 -120.184622 142 5502ft 142kts
10-Jan-21 09:57 34.601424 -120.155024 142 5501ft 142kts
10-Jan-21 09:58 34.569106 -120.125354 142 5501ft 142kts
10-Jan-21 09:59 34.536678 -120.095601 142 5501ft 142kts
10-Jan-21 10:00 34.503939 -120.065771 143 5502ft 142kts
10-Jan-21 10:01 34.471435 -120.036222 143 5502ft 142kts
10-Jan-21 10:02 34.438846 -120.006605 142 5500ft 142kts
10-Jan-21 10:03 34.406047 -119.976860 142 5502ft 143kts
10-Jan-21 10:04 34.373142 -119.947016 142 5502ft 143kts
10-Jan-21 10:05 34.340190 -119.917178 142 5502ft 143kts
10-Jan-21 10:06 34.307284 -119.887415 142 5503ft 143kts
10-Jan-21 10:07 34.285152 -119.849889 87 5503ft 140kts
10-Jan-21 10:08 34.287099 -119.801589 81 5501ft 139kts
10-Jan-21 10:09 34.290608 -119.753449 80 5502ft 139kts
10-Jan-21 10:10 34.294356 -119.705593 80 5502ft 139kts
10-Jan-21 10:11 34.298136 -119.657694 80 5503ft 139kts
10-Jan-21 10:12 34.301930 -119.609525 80 5503ft 139kts
10-Jan-21 10:13 34.305684 -119.561341 79 5502ft 138kts
10-Jan-21 10:14 34.309461 -119.513301 79 5503ft 139kts
10-Jan-21 10:15 34.313213 -119.464991 80 5503ft 140kts
10-Jan-21 10:16 34.316926 -119.416492 79 5503ft 140kts
10-Jan-21 10:17 34.320681 -119.367658 79 5502ft 140kts
10-Jan-21 10:18 34.324354 -119.319641 80 5502ft 140kts
10-Jan-21 10:19 34.328069 -119.270816 80 5501ft 140kts
10-Jan-21 10:20 34.331731 -119.222377 80 5501ft 140kts
10-Jan-21 10:21 34.335336 -119.173830 79 5500ft 137kts
10-Jan-21 10:22 34.338930 -119.126304 79 5503ft 136kts
10-Jan-21 10:23 34.342466 -119.078884 79 5502ft 136kts
10-Jan-21 10:24 34.345970 -119.031544 79 5501ft 136kts
10-Jan-21 10:25 34.349426 -118.984543 79 5502ft 135kts
10-Jan-21 10:26 34.352872 -118.937524 79 5502ft 136kts
10-Jan-21 10:27 34.356328 -118.890089 79 5501ft 136kts
10-Jan-21 10:28 34.343923 -118.843923 106 5502ft 141kts
10-Jan-21 10:29 34.328606 -118.798081 107 5501ft 142kts
10-Jan-21 10:30 34.312757 -118.751357 109 5502ft 146kts
10-Jan-21 10:31 34.296591 -118.704122 109 5503ft 146kts
10-Jan-21 10:32 34.280587 -118.657121 108 5499ft 147kts
10-Jan-21 10:33 34.264526 -118.610336 109 5502ft 147kts
10-Jan-21 10:34 34.248544 -118.563817 110 5502ft 143kts
10-Jan-21 10:35 34.232932 -118.518388 110 5502ft 142kts
10-Jan-21 10:36 34.217995 -118.472531 107 5502ft 143kts
10-Jan-21 10:37 34.204031 -118.426572 107 5502ft 142kts
10-Jan-21 10:38 34.190127 -118.380708 107 5503ft 142kts
10-Jan-21 10:39 34.176219 -118.334955 108 5501ft 142kts
10-Jan-21 10:40 34.162214 -118.288927 107 5502ft 141kts
10-Jan-21 10:41 34.148273 -118.243163 108 5502ft 141kts
10-Jan-21 10:42 34.134210 -118.197365 107 5501ft 143kts
10-Jan-21 10:43 34.120152 -118.151510 108 5501ft 143kts
10-Jan-21 10:45 34.106142 -118.105367 106 5515ft 144kts
10-Jan-21 10:46 34.091689 -118.058923 107 5507ft 144kts
10-Jan-21 10:47 34.077486 -118.012360 107 5511ft 144kts
10-Jan-21 10:48 34.063110 -117.965683 107 5501ft 144kts
10-Jan-21 10:49 34.048753 -117.918833 106 5526ft 143kts
10-Jan-21 10:50 34.034539 -117.872305 106 5504ft 143kts
10-Jan-21 10:51 34.019935 -117.825911 106 5503ft 143kts
10-Jan-21 10:52 34.005768 -117.779200 109 5495ft 146kts
10-Jan-21 10:53 33.990193 -117.732509 114 5503ft 145kts
10-Jan-21 10:54 33.974301 -117.687196 117 5513ft 141kts
10-Jan-21 10:55 33.958143 -117.642066 116 5499ft 143kts
10-Jan-21 10:56 33.942234 -117.597014 108 5513ft 138kts
10-Jan-21 10:57 33.927355 -117.554378 110 5500ft 131kts
10-Jan-21 10:58 33.904662 -117.518770 139 5509ft 135kts
10-Jan-21 10:58 33.878232 -117.496041 138 5510ft 135kts
10-Jan-21 10:59 33.846088 -117.469356 139 5504ft 135kts
10-Jan-21 11:00 33.813924 -117.442219 139 5502ft 136kts
10-Jan-21 11:02 33.776123 -117.410515 142 5501ft 139kts
10-Jan-21 11:03 33.742648 -117.382694 139 5287ft 140kts
10-Jan-21 11:03 33.720307 -117.355968 122 4840ft 131kts
10-Jan-21 11:04 33.697122 -117.319899 123 4325ft 132kts
10-Jan-21 11:05 33.673842 -117.283525 123 3807ft 131kts
10-Jan-21 11:06 33.653415 -117.251784 122 3277ft 115kts
10-Jan-21 11:07 33.633046 -117.219877 124 2834ft 115kts
10-Jan-21 11:08 33.614340 -117.190813 123 2533ft 90kts
10-Jan-21 11:09 33.599438 -117.167462 123 2291ft 76kts
10-Jan-21 11:10 33.585697 -117.145862 124 2297ft 83kts
10-Jan-21 11:11 33.570833 -117.122103 120 2292ft 81kts
10-Jan-21 11:12 33.550883 -117.117657 219 2042ft 80kts
10-Jan-21 11:13 33.556606 -117.133078 13 1604ft 69kts
10-Jan-21 11:14 33.572121 -117.129026 12 1353ft 30kts
10-Jan-21 11:15 33.574642 -117.128914 239 1353ft 0kts
10-Jan-21 11:16 33.574866 -117.129616 282 1353ft 5kts
10-Jan-21 11:17 33.576290 -117.129602 9 1353ft 7kts
10-Jan-21 11:18 33.578451 -117.129450 288 1353ft 8kts
10-Jan-21 11:19 33.578447 -117.129956 108 1353ft 0kts
10-Jan-21 11:20 33.578447 -117.129956 108 1353ft 0kts
10-Jan-21 11:21 33.578447 -117.129956 108 1353ft 0kts
10-Jan-21 11:22 33.578447 -117.129956 108 1353ft 0kts
10-Jan-21 11:23 33.578447 -117.129956 109 1353ft 0kts
10-Jan-21 11:24 33.578447 -117.129956 109 1353ft 0kts
10-Jan-21 11:25 33.578447 -117.129956 109 1353ft 0kts
10-Jan-21 11:26 33.578447 -117.129956 109 1353ft 0kts
10-Jan-21 11:27 33.578447 -117.129956 109 1353ft 0kts
10-Jan-21 11:28 33.578447 -117.129956 109 1353ft 0kts

Navigation Log

Ident Type
Flight plan parsing failed, navigation log unavailable